createdAt,value
2022-12-26T00:00:54.555Z,2.53
2022-12-26T00:03:22.382Z,2.43
2022-12-26T00:05:50.426Z,2.70
2022-12-26T00:08:20.163Z,2.70
2022-12-26T00:10:47.613Z,2.67
2022-12-26T00:13:39.039Z,1.97
2022-12-26T00:16:07.485Z,2.27
2022-12-26T00:18:35.005Z,2.67
2022-12-26T00:21:03.081Z,2.27
2022-12-26T00:23:32.353Z,2.77
2022-12-26T00:26:03.541Z,2.67
2022-12-26T00:28:31.075Z,3.40
2022-12-26T00:30:58.834Z,4.00
2022-12-26T00:33:26.354Z,2.90
2022-12-26T00:35:53.828Z,3.80
2022-12-26T00:38:21.409Z,4.33
2022-12-26T00:40:50.291Z,4.03
2022-12-26T00:43:17.771Z,4.90
2022-12-26T00:45:45.728Z,3.73
2022-12-26T00:48:13.199Z,4.03
2022-12-26T00:50:40.675Z,5.83
2022-12-26T00:53:08.193Z,4.87
2022-12-26T00:55:35.730Z,3.90
2022-12-26T00:58:05.463Z,3.93
2022-12-26T01:00:33.458Z,5.87
2022-12-26T01:03:01.121Z,4.07
2022-12-26T01:05:29.023Z,4.63
2022-12-26T01:08:19.570Z,3.03
2022-12-26T01:10:46.263Z,6.20
2022-12-26T01:13:15.300Z,7.80
2022-12-26T01:15:49.223Z,5.00
2022-12-26T01:18:16.771Z,4.90
2022-12-26T01:20:44.242Z,5.47
2022-12-26T01:23:11.890Z,5.50
2022-12-26T01:26:16.350Z,7.70
2022-12-26T01:28:28.977Z,4.47
2022-12-26T01:30:56.472Z,5.90
2022-12-26T01:33:24.196Z,4.13
2022-12-26T01:35:53.108Z,6.70
2022-12-26T01:38:21.169Z,5.27
2022-12-26T01:41:10.165Z,5.57
2022-12-26T01:43:54.820Z,4.20
2022-12-26T01:46:26.880Z,5.30
2022-12-26T01:48:56.123Z,5.17
2022-12-26T01:51:27.524Z,7.23
2022-12-26T01:54:40.936Z,5.57
2022-12-26T01:56:48.069Z,7.30
2022-12-26T01:59:20.234Z,7.30
2022-12-26T02:01:49.824Z,5.87
2022-12-26T02:04:41.217Z,5.83
2022-12-26T02:07:09.271Z,4.40
2022-12-26T02:09:38.646Z,4.03
2022-12-26T02:12:33.996Z,4.83
2022-12-26T02:15:03.766Z,5.93
2022-12-26T02:17:31.404Z,3.27
2022-12-26T02:20:05.175Z,5.50
2022-12-26T02:23:01.849Z,6.20
2022-12-26T02:26:01.724Z,7.70
2022-12-26T02:28:54.451Z,6.77
2022-12-26T02:31:29.754Z,5.67
2022-12-26T02:34:06.779Z,6.60
2022-12-26T02:36:52.069Z,7.70
2022-12-26T02:39:43.688Z,6.57
2022-12-26T02:42:25.356Z,7.17
2022-12-26T02:45:15.014Z,7.97
2022-12-26T02:47:54.709Z,7.63
2022-12-26T02:50:50.215Z,6.47
2022-12-26T02:53:43.875Z,6.20
2022-12-26T02:56:37.987Z,6.70
2022-12-26T02:59:53.861Z,5.63
2022-12-26T03:02:43.735Z,5.90
2022-12-26T03:05:43.857Z,8.03
2022-12-26T03:08:32.515Z,6.97
2022-12-26T03:11:16.769Z,7.10
2022-12-26T03:13:46.741Z,9.93
2022-12-26T03:16:34.615Z,8.00
2022-12-26T03:19:06.935Z,5.67
2022-12-26T03:21:41.484Z,6.83
2022-12-26T03:24:11.590Z,8.23
2022-12-26T03:26:43.777Z,8.27
2022-12-26T03:29:31.333Z,6.33
2022-12-26T03:31:59.360Z,8.87
2022-12-26T03:34:26.937Z,6.13
2022-12-26T03:37:10.275Z,6.83
2022-12-26T03:40:18.933Z,8.70
2022-12-26T03:43:12.899Z,5.33
2022-12-26T03:46:06.302Z,9.57
2022-12-26T03:48:58.756Z,8.57
2022-12-26T03:51:49.597Z,7.30
2022-12-26T03:54:44.743Z,11.03
2022-12-26T03:57:50.883Z,10.77
2022-12-26T04:00:36.660Z,8.50
2022-12-26T04:03:26.128Z,10.03
2022-12-26T04:06:17.314Z,8.57
2022-12-26T04:09:08.360Z,12.20
2022-12-26T04:11:57.023Z,7.70
2022-12-26T04:14:54.989Z,9.87
2022-12-26T04:17:47.997Z,13.57
2022-12-26T04:20:23.244Z,8.70
2022-12-26T04:23:14.443Z,11.90
2022-12-26T04:26:05.943Z,8.80
2022-12-26T04:28:52.706Z,9.70
2022-12-26T04:31:45.534Z,9.77
2022-12-26T04:34:38.176Z,9.30
2022-12-26T04:37:28.454Z,8.10
2022-12-26T04:40:15.148Z,9.23
2022-12-26T04:43:47.390Z,10.53
2022-12-26T04:45:53.121Z,8.00
2022-12-26T04:48:38.147Z,10.33
2022-12-26T04:51:06.678Z,8.67
2022-12-26T04:53:34.189Z,10.57
2022-12-26T04:56:01.688Z,10.70
2022-12-26T04:58:30.105Z,12.60
2022-12-26T05:01:18.967Z,12.57
2022-12-26T05:04:04.491Z,8.27
2022-12-26T05:06:49.816Z,8.90
2022-12-26T05:09:35.444Z,10.87
2022-12-26T05:12:03.449Z,9.90
2022-12-26T05:14:32.015Z,11.23
2022-12-26T05:17:18.650Z,9.83
2022-12-26T05:20:03.637Z,10.80
2022-12-26T05:22:51.850Z,8.43
2022-12-26T05:25:41.512Z,8.07
2022-12-26T05:28:28.773Z,9.83
2022-12-26T05:30:56.279Z,10.57
2022-12-26T05:33:43.186Z,10.90
2022-12-26T05:36:11.431Z,9.27
2022-12-26T05:38:39.011Z,9.23
2022-12-26T05:41:06.715Z,8.43
2022-12-26T05:43:34.203Z,10.80
2022-12-26T05:46:01.820Z,8.93
2022-12-26T05:48:30.658Z,13.77
2022-12-26T05:50:59.648Z,8.47
2022-12-26T05:53:27.430Z,9.77
2022-12-26T05:55:54.953Z,11.50
2022-12-26T05:58:22.675Z,12.27
2022-12-26T06:00:50.147Z,11.40
2022-12-26T06:03:17.680Z,9.03
2022-12-26T06:05:46.516Z,8.23
2022-12-26T06:08:13.973Z,8.33
2022-12-26T06:10:41.429Z,8.97
2022-12-26T06:13:08.885Z,10.53
2022-12-26T06:15:39.510Z,11.80
2022-12-26T06:18:07.033Z,8.60
2022-12-26T06:20:34.532Z,7.30
2022-12-26T06:23:03.327Z,11.70
2022-12-26T06:25:30.863Z,9.50
2022-12-26T06:27:58.350Z,6.53
2022-12-26T06:30:25.858Z,6.23
2022-12-26T06:32:53.938Z,7.57
2022-12-26T06:35:21.443Z,9.33
2022-12-26T06:37:48.956Z,8.07
2022-12-26T06:40:17.941Z,8.63
2022-12-26T06:42:45.397Z,6.20
2022-12-26T06:45:12.915Z,8.57
2022-12-26T06:47:40.497Z,6.90
2022-12-26T06:50:08.486Z,8.70
2022-12-26T06:52:35.969Z,5.87
2022-12-26T06:55:03.870Z,9.90
2022-12-26T06:57:32.737Z,6.10
2022-12-26T07:00:00.271Z,9.43
2022-12-26T07:02:27.811Z,10.10
2022-12-26T07:04:55.379Z,10.87
2022-12-26T07:07:23.516Z,11.10
2022-12-26T07:09:51.483Z,7.57
2022-12-26T07:12:21.685Z,9.60
2022-12-26T07:14:50.559Z,8.37
2022-12-26T07:17:19.376Z,10.20
2022-12-26T07:19:46.996Z,5.67
2022-12-26T07:22:14.486Z,7.40
2022-12-26T07:24:41.955Z,8.80
2022-12-26T07:27:09.412Z,8.80
2022-12-26T07:29:36.907Z,11.67
2022-12-26T07:32:07.038Z,8.60
2022-12-26T07:34:34.817Z,9.57
2022-12-26T07:37:02.294Z,9.00
2022-12-26T07:39:29.789Z,10.17
2022-12-26T07:42:00.220Z,8.70
2022-12-26T07:44:29.841Z,9.17
2022-12-26T07:46:58.813Z,8.70
2022-12-26T07:49:28.213Z,7.57
2022-12-26T07:51:55.748Z,18.77
2022-12-26T07:54:23.449Z,8.77
2022-12-26T07:56:50.919Z,8.97
2022-12-26T07:59:18.944Z,11.57
2022-12-26T08:01:46.677Z,10.90
2022-12-26T08:04:14.792Z,9.63
2022-12-26T08:06:43.647Z,12.73
2022-12-26T08:09:15.756Z,11.03
2022-12-26T08:11:43.995Z,14.13
2022-12-26T08:14:12.747Z,14.07
2022-12-26T08:16:40.914Z,8.63
2022-12-26T08:19:09.484Z,10.93
2022-12-26T08:21:37.031Z,10.80
2022-12-26T08:24:06.155Z,10.77
2022-12-26T08:26:33.637Z,10.57
2022-12-26T08:29:01.076Z,13.63
2022-12-26T08:31:29.844Z,11.27
2022-12-26T08:33:58.272Z,14.07
2022-12-26T08:36:25.847Z,14.07
2022-12-26T08:38:53.619Z,12.50
2022-12-26T08:41:22.414Z,13.13
2022-12-26T08:44:25.878Z,12.60
2022-12-26T08:46:38.193Z,13.77
2022-12-26T08:49:05.689Z,12.73
2022-12-26T08:51:33.179Z,11.27
2022-12-26T08:54:00.612Z,14.60
2022-12-26T08:56:29.640Z,8.97
2022-12-26T08:58:57.176Z,8.30
2022-12-26T09:01:27.019Z,14.17
2022-12-26T09:03:55.953Z,9.37
2022-12-26T09:06:23.517Z,11.23
2022-12-26T09:08:53.689Z,13.30
2022-12-26T09:11:23.640Z,10.03
2022-12-26T09:13:52.496Z,9.27
2022-12-26T09:16:21.909Z,9.10
2022-12-26T09:18:50.226Z,8.83
2022-12-26T09:21:17.710Z,10.83
2022-12-26T09:23:45.891Z,9.27
2022-12-26T09:26:18.398Z,8.43
2022-12-26T09:28:47.087Z,12.30
2022-12-26T09:31:18.763Z,10.60
2022-12-26T09:33:47.195Z,9.47
2022-12-26T09:36:16.681Z,10.13
2022-12-26T09:38:45.701Z,10.63
2022-12-26T09:41:33.591Z,9.10
2022-12-26T09:44:07.692Z,8.43
2022-12-26T09:46:44.156Z,6.70
2022-12-26T09:49:15.045Z,8.80
2022-12-26T09:51:47.276Z,9.10
2022-12-26T09:54:24.115Z,10.30
2022-12-26T09:57:02.380Z,6.40
2022-12-26T09:59:35.407Z,10.10
2022-12-26T10:02:05.388Z,7.90
2022-12-26T10:04:32.983Z,6.67
2022-12-26T10:07:11.562Z,5.43
2022-12-26T10:09:55.216Z,7.33
2022-12-26T10:12:36.809Z,8.50
2022-12-26T10:15:16.638Z,6.93
2022-12-26T10:17:50.386Z,6.90
2022-12-26T10:20:26.309Z,9.27
2022-12-26T10:23:06.681Z,7.20
2022-12-26T10:25:42.417Z,6.00
2022-12-26T10:28:17.617Z,8.17
2022-12-26T10:30:46.881Z,6.60
2022-12-26T10:33:21.602Z,6.57
2022-12-26T10:35:49.762Z,8.60
2022-12-26T10:38:27.939Z,7.77
2022-12-26T10:40:59.707Z,8.73
2022-12-26T10:43:31.235Z,10.63
2022-12-26T10:46:17.496Z,8.93
2022-12-26T10:48:46.890Z,7.73
2022-12-26T10:51:15.262Z,6.70
2022-12-26T10:53:48.621Z,7.03
2022-12-26T10:56:18.510Z,7.40
2022-12-26T10:58:47.542Z,6.43
2022-12-26T11:01:33.530Z,9.10
2022-12-26T11:04:04.641Z,12.47
2022-12-26T11:06:37.798Z,12.17
2022-12-26T11:09:06.009Z,10.63
2022-12-26T11:11:46.639Z,12.97
2022-12-26T11:14:34.189Z,10.00
2022-12-26T11:17:05.090Z,11.60
2022-12-26T11:19:37.035Z,8.30
2022-12-26T11:22:31.820Z,8.00
2022-12-26T11:25:17.455Z,7.27
2022-12-26T11:27:47.431Z,10.83
2022-12-26T11:30:34.383Z,11.87
2022-12-26T11:33:24.697Z,9.83
2022-12-26T11:35:59.517Z,7.30
2022-12-26T11:38:44.910Z,6.43
2022-12-26T11:41:36.392Z,8.53
2022-12-26T11:44:13.884Z,7.40
2022-12-26T11:46:44.571Z,5.70
2022-12-26T11:49:20.569Z,7.40
2022-12-26T11:51:58.521Z,8.80
2022-12-26T11:54:33.423Z,6.50
2022-12-26T11:57:22.149Z,8.00
2022-12-26T11:59:51.335Z,7.13
2022-12-26T12:02:28.671Z,5.93
2022-12-26T12:05:01.095Z,4.20
2022-12-26T12:07:47.155Z,4.90
2022-12-26T12:10:36.014Z,3.73
2022-12-26T12:13:11.227Z,6.17
2022-12-26T12:15:48.111Z,4.20
2022-12-26T12:18:21.389Z,4.63
2022-12-26T12:21:00.240Z,4.90
2022-12-26T12:23:45.857Z,3.23
2022-12-26T12:26:18.481Z,6.83
2022-12-26T12:29:23.586Z,6.03
2022-12-26T12:32:03.224Z,4.10
2022-12-26T12:34:44.576Z,3.90
2022-12-26T12:37:23.721Z,4.77
2022-12-26T12:40:02.523Z,4.40
2022-12-26T12:42:43.267Z,6.60
2022-12-26T12:45:27.030Z,4.00
2022-12-26T12:48:21.954Z,10.50
2022-12-26T12:50:57.721Z,5.10
2022-12-26T12:53:35.161Z,5.10
2022-12-26T12:56:19.748Z,5.17
2022-12-26T12:58:58.168Z,5.20
2022-12-26T13:01:29.389Z,10.23
2022-12-26T13:04:05.132Z,4.17
2022-12-26T13:06:37.674Z,3.27
2022-12-26T13:09:13.279Z,4.27
2022-12-26T13:11:46.694Z,13.00
2022-12-26T13:14:20.916Z,3.60
2022-12-26T13:16:52.607Z,4.47
2022-12-26T13:19:23.727Z,8.43
2022-12-26T13:21:55.691Z,3.50
2022-12-26T13:24:30.411Z,4.37
2022-12-26T13:27:03.190Z,4.40
2022-12-26T13:29:36.853Z,5.30
2022-12-26T13:32:14.559Z,7.67
2022-12-26T13:34:44.111Z,4.10
2022-12-26T13:37:55.862Z,6.73
2022-12-26T13:40:26.907Z,7.47
2022-12-26T13:43:18.098Z,2.80
2022-12-26T13:45:52.275Z,4.80
2022-12-26T13:48:56.394Z,6.23
2022-12-26T13:51:52.245Z,4.33
2022-12-26T13:54:21.523Z,9.43
2022-12-26T13:57:30.449Z,4.77
2022-12-26T14:00:15.999Z,3.67
2022-12-26T14:03:20.454Z,3.97
2022-12-26T14:06:05.755Z,3.70
2022-12-26T14:08:42.350Z,3.60
2022-12-26T14:11:28.346Z,2.40
2022-12-26T14:14:08.007Z,5.10
2022-12-26T14:16:46.184Z,4.30
2022-12-26T14:19:25.334Z,2.20
2022-12-26T14:22:01.568Z,2.47
2022-12-26T14:24:36.518Z,1.90
2022-12-26T14:27:25.780Z,1.97
2022-12-26T14:30:01.312Z,2.60
2022-12-26T14:32:41.027Z,2.43
2022-12-26T14:35:16.356Z,2.10
2022-12-26T14:37:53.054Z,1.83
2022-12-26T14:40:28.602Z,1.90
2022-12-26T14:43:11.005Z,4.97
2022-12-26T14:45:42.860Z,2.63
2022-12-26T14:48:46.704Z,4.57
2022-12-26T14:51:41.463Z,3.77
2022-12-26T14:54:37.454Z,6.73
2022-12-26T14:57:43.695Z,1.57
2022-12-26T15:00:30.573Z,1.00
2022-12-26T15:03:40.833Z,1.67
2022-12-26T15:06:46.995Z,3.47
2022-12-26T15:09:59.494Z,2.90
2022-12-26T15:13:05.994Z,3.03
2022-12-26T15:15:39.274Z,5.73
2022-12-26T15:18:42.969Z,4.83
2022-12-26T15:21:32.812Z,3.60
2022-12-26T15:25:08.320Z,2.63
2022-12-26T15:27:34.662Z,2.87
2022-12-26T15:30:21.660Z,2.03
2022-12-26T15:32:59.927Z,2.70
2022-12-26T15:35:33.535Z,0.93
2022-12-26T15:38:16.556Z,3.80
2022-12-26T15:40:52.394Z,4.33
2022-12-26T15:43:41.172Z,2.53
2022-12-26T15:46:18.343Z,1.80
2022-12-26T15:49:00.552Z,2.93
2022-12-26T15:51:40.759Z,2.00
2022-12-26T15:54:34.910Z,8.63
2022-12-26T15:57:16.025Z,3.27
2022-12-26T16:00:16.094Z,11.50
2022-12-26T16:02:48.624Z,3.10
2022-12-26T16:05:32.890Z,1.93
2022-12-26T16:08:11.391Z,0.90
2022-12-26T16:10:39.553Z,2.50
2022-12-26T16:13:22.854Z,1.90
2022-12-26T16:15:53.074Z,1.33
2022-12-26T16:18:22.775Z,1.73
2022-12-26T16:21:10.865Z,2.27
2022-12-26T16:23:41.044Z,3.83
2022-12-26T16:26:16.766Z,5.20
2022-12-26T16:28:45.869Z,8.83
2022-12-26T16:31:20.548Z,4.97
2022-12-26T16:33:48.696Z,3.60
2022-12-26T16:36:23.634Z,6.67
2022-12-26T16:38:52.227Z,6.27
2022-12-26T16:41:22.876Z,7.20
2022-12-26T16:43:54.215Z,5.07
2022-12-26T16:46:24.900Z,6.93
2022-12-26T16:48:56.051Z,8.00
2022-12-26T16:51:39.958Z,3.30
2022-12-26T16:54:26.590Z,9.53
2022-12-26T16:57:02.651Z,8.10
2022-12-26T16:59:39.233Z,6.50
2022-12-26T17:02:13.665Z,7.27
2022-12-26T17:04:41.434Z,4.23
2022-12-26T17:07:16.841Z,7.47
2022-12-26T17:09:49.632Z,8.70
2022-12-26T17:12:21.759Z,7.00
2022-12-26T17:14:52.075Z,4.10
2022-12-26T17:17:34.149Z,9.10
2022-12-26T17:20:34.955Z,9.43
2022-12-26T17:23:34.670Z,2.17
2022-12-26T17:26:24.314Z,5.47
2022-12-26T17:28:52.554Z,3.60
2022-12-26T17:31:28.647Z,7.63
2022-12-26T17:33:57.543Z,8.70
2022-12-26T17:39:22.650Z,4.90
2022-12-26T17:41:52.496Z,6.90
2022-12-26T17:44:40.531Z,9.33
2022-12-26T17:47:16.581Z,3.90
2022-12-26T17:49:44.059Z,5.30
2022-12-26T17:52:12.342Z,8.10
2022-12-26T17:54:41.412Z,7.10
2022-12-26T17:57:17.785Z,6.77
2022-12-26T17:59:45.364Z,12.37
2022-12-26T18:02:12.913Z,13.23
2022-12-26T18:04:40.437Z,5.33
2022-12-26T18:07:10.166Z,7.80
2022-12-26T18:09:37.873Z,15.47
2022-12-26T18:12:06.927Z,12.43
2022-12-26T18:14:34.411Z,10.70
2022-12-26T18:17:03.532Z,6.27
2022-12-26T18:19:31.152Z,4.43
2022-12-26T18:21:58.642Z,6.10
2022-12-26T18:24:26.101Z,9.30
2022-12-26T18:26:53.761Z,7.57
2022-12-26T18:29:23.001Z,4.97
2022-12-26T18:31:50.554Z,10.73
2022-12-26T18:34:18.038Z,6.83
2022-12-26T18:36:46.828Z,9.43
2022-12-26T18:39:16.102Z,4.90
2022-12-26T18:41:44.474Z,14.87
2022-12-26T18:44:12.005Z,13.97
2022-12-26T18:46:40.859Z,13.27
2022-12-26T18:49:09.927Z,12.07
2022-12-26T18:51:40.465Z,11.27
2022-12-26T18:54:07.927Z,9.60
2022-12-26T18:56:36.799Z,14.73
2022-12-26T18:59:04.753Z,17.37
2022-12-26T19:01:35.979Z,9.47
2022-12-26T19:04:05.657Z,4.13
2022-12-26T19:06:35.586Z,13.70
2022-12-26T19:09:03.253Z,16.40
2022-12-26T19:11:31.371Z,6.20
2022-12-26T19:14:00.853Z,7.70
2022-12-26T19:16:28.705Z,5.50
2022-12-26T19:18:56.431Z,16.33
2022-12-26T19:21:25.453Z,6.80
2022-12-26T19:23:52.948Z,10.40
2022-12-26T19:26:22.793Z,4.40
2022-12-26T19:28:52.547Z,5.30
2022-12-26T19:31:24.089Z,8.60
2022-12-26T19:33:51.603Z,3.97
2022-12-26T19:36:19.112Z,10.83
2022-12-26T19:38:47.871Z,10.00
2022-12-26T19:41:15.843Z,9.33
2022-12-26T19:43:43.424Z,8.00
2022-12-26T19:46:16.374Z,11.10
2022-12-26T19:48:45.351Z,10.70
2022-12-26T19:51:14.938Z,9.50
2022-12-26T19:53:44.185Z,6.70
2022-12-26T19:56:15.082Z,8.77
2022-12-26T19:58:43.566Z,7.43
2022-12-26T20:01:14.290Z,18.67
2022-12-26T20:03:42.170Z,20.30
2022-12-26T20:06:11.988Z,12.60
2022-12-26T20:08:39.992Z,6.53
2022-12-26T20:11:08.584Z,8.37
2022-12-26T20:13:37.568Z,9.27
2022-12-26T20:16:09.303Z,8.07
2022-12-26T20:18:42.704Z,6.80
2022-12-26T20:21:11.519Z,7.80
2022-12-26T20:23:39.337Z,10.90
2022-12-26T20:26:10.373Z,7.90
2022-12-26T20:28:39.388Z,6.80
2022-12-26T20:31:12.936Z,8.83
2022-12-26T20:33:43.842Z,9.03
2022-12-26T20:36:14.269Z,3.13
2022-12-26T20:38:42.850Z,6.80
2022-12-26T20:41:11.613Z,7.40
2022-12-26T20:43:41.144Z,11.33
2022-12-26T20:46:10.825Z,23.47
2022-12-26T20:48:39.156Z,20.73
2022-12-26T20:51:10.239Z,17.97
2022-12-26T20:53:38.472Z,7.47
2022-12-26T20:56:07.785Z,11.63
2022-12-26T20:58:36.848Z,8.70
2022-12-26T21:01:12.076Z,14.80
2022-12-26T21:03:39.993Z,11.90
2022-12-26T21:06:10.205Z,10.10
2022-12-26T21:08:39.339Z,7.33
2022-12-26T21:11:08.358Z,8.67
2022-12-26T21:13:36.645Z,8.40
2022-12-26T21:16:10.633Z,5.27
2022-12-26T21:18:38.585Z,5.63
2022-12-26T21:21:08.878Z,11.57
2022-12-26T21:23:37.450Z,7.17
2022-12-26T21:26:05.821Z,5.37
2022-12-26T21:28:34.441Z,11.23
2022-12-26T21:31:02.626Z,7.10
2022-12-26T21:33:31.779Z,8.40
2022-12-26T21:35:59.572Z,2.77
2022-12-26T21:38:29.605Z,7.47
2022-12-26T21:40:57.987Z,6.67
2022-12-26T21:43:30.253Z,4.37
2022-12-26T21:46:01.244Z,10.60
2022-12-26T21:48:29.054Z,5.73
2022-12-26T21:50:57.885Z,2.80
2022-12-26T21:53:25.377Z,7.37
2022-12-26T21:55:51.920Z,6.37
2022-12-26T21:58:19.460Z,9.93
2022-12-26T22:00:46.949Z,6.90
2022-12-26T22:03:32.059Z,2.50
2022-12-26T22:06:01.179Z,4.40
2022-12-26T22:08:28.673Z,3.27
2022-12-26T22:11:28.540Z,4.50
2022-12-26T22:13:56.000Z,2.90
2022-12-26T22:16:24.406Z,3.17
2022-12-26T22:18:52.006Z,7.40
2022-12-26T22:21:22.283Z,11.87
2022-12-26T22:23:52.580Z,8.40
2022-12-26T22:26:23.053Z,4.57
2022-12-26T22:28:50.966Z,6.87
2022-12-26T22:31:20.939Z,8.20
2022-12-26T22:33:48.921Z,8.00
2022-12-26T22:36:16.482Z,3.90
2022-12-26T22:38:45.659Z,8.03
2022-12-26T22:41:13.851Z,3.90
2022-12-26T22:43:43.148Z,9.83
2022-12-26T22:46:12.851Z,5.13
2022-12-26T22:48:41.565Z,6.17
2022-12-26T22:51:09.657Z,4.57
2022-12-26T22:53:37.198Z,6.10
2022-12-26T22:56:07.215Z,9.17
2022-12-26T22:58:35.111Z,5.10
2022-12-26T23:01:02.589Z,6.20
2022-12-26T23:03:30.103Z,3.80
2022-12-26T23:05:57.938Z,3.13
2022-12-26T23:08:28.190Z,2.60
2022-12-26T23:10:58.789Z,5.30
2022-12-26T23:13:28.271Z,11.30
2022-12-26T23:15:59.330Z,3.43
2022-12-26T23:18:53.041Z,2.80
2022-12-26T23:21:40.220Z,4.23
2022-12-26T23:24:10.206Z,5.27
2022-12-26T23:26:37.729Z,3.00
2022-12-26T23:29:24.400Z,6.03
2022-12-26T23:31:52.356Z,5.03
2022-12-26T23:34:19.999Z,3.27
2022-12-26T23:36:47.894Z,2.10
2022-12-26T23:39:15.768Z,7.83
2022-12-26T23:41:43.526Z,6.90
2022-12-26T23:44:12.931Z,2.93
2022-12-26T23:46:40.914Z,3.83
2022-12-26T23:49:13.543Z,3.60
2022-12-26T23:51:41.847Z,3.70
2022-12-26T23:54:09.925Z,5.30
2022-12-26T23:56:38.257Z,4.50
2022-12-26T23:59:06.273Z,2.13
